sensor_id;sensor_type;location;lat;lon;timestamp;P1;durP1;ratioP1;P2;durP2;ratioP2
5539;SDS011;2792;52.452;9.752;2024-03-23T00:55:15;34.73;;;11.47;;
5539;SDS011;2792;52.452;9.752;2024-03-23T00:57:40;30.20;;;10.93;;
5539;SDS011;2792;52.452;9.752;2024-03-23T01:00:07;30.23;;;12.67;;
5539;SDS011;2792;52.452;9.752;2024-03-23T01:02:35;29.33;;;11.50;;
5539;SDS011;2792;52.452;9.752;2024-03-23T01:05:02;32.00;;;13.17;;
5539;SDS011;2792;52.452;9.752;2024-03-23T01:07:27;27.00;;;12.30;;
5539;SDS011;2792;52.452;9.752;2024-03-23T01:09:54;35.73;;;14.33;;
5539;SDS011;2792;52.452;9.752;2024-03-23T01:12:21;37.90;;;13.27;;
5539;SDS011;2792;52.452;9.752;2024-03-23T01:14:47;31.10;;;13.10;;
5539;SDS011;2792;52.452;9.752;2024-03-23T01:17:13;32.73;;;12.17;;
5539;SDS011;2792;52.452;9.752;2024-03-23T01:19:39;34.47;;;12.63;;
5539;SDS011;2792;52.452;9.752;2024-03-23T01:22:06;24.30;;;11.83;;
5539;SDS011;2792;52.452;9.752;2024-03-23T01:24:33;30.37;;;11.00;;
5539;SDS011;2792;52.452;9.752;2024-03-23T01:26:58;26.57;;;10.27;;
5539;SDS011;2792;52.452;9.752;2024-03-23T01:29:26;31.60;;;10.60;;
5539;SDS011;2792;52.452;9.752;2024-03-23T01:31:51;21.97;;;9.37;;
5539;SDS011;2792;52.452;9.752;2024-03-23T01:34:18;22.70;;;9.13;;
5539;SDS011;2792;52.452;9.752;2024-03-23T01:36:45;23.77;;;9.97;;
5539;SDS011;2792;52.452;9.752;2024-03-23T01:39:12;23.07;;;8.20;;
5539;SDS011;2792;52.452;9.752;2024-03-23T01:41:37;21.20;;;8.77;;
5539;SDS011;2792;52.452;9.752;2024-03-23T01:44:07;29.40;;;8.07;;
5539;SDS011;2792;52.452;9.752;2024-03-23T01:46:34;16.93;;;7.40;;
5539;SDS011;2792;52.452;9.752;2024-03-23T01:49:01;23.30;;;7.77;;
5539;SDS011;2792;52.452;9.752;2024-03-23T01:51:27;20.93;;;7.57;;
5539;SDS011;2792;52.452;9.752;2024-03-23T01:53:53;26.23;;;8.23;;
5539;SDS011;2792;52.452;9.752;2024-03-23T01:56:19;21.13;;;7.93;;
5539;SDS011;2792;52.452;9.752;2024-03-23T01:58:46;23.27;;;7.63;;
5539;SDS011;2792;52.452;9.752;2024-03-23T02:01:12;22.20;;;7.93;;
5539;SDS011;2792;52.452;9.752;2024-03-23T02:03:42;19.77;;;8.67;;
5539;SDS011;2792;52.452;9.752;2024-03-23T02:06:09;23.53;;;8.40;;
5539;SDS011;2792;52.452;9.752;2024-03-23T02:08:36;24.23;;;8.57;;
5539;SDS011;2792;52.452;9.752;2024-03-23T02:11:01;22.23;;;9.97;;
5539;SDS011;2792;52.452;9.752;2024-03-23T02:13:28;31.53;;;10.17;;
5539;SDS011;2792;52.452;9.752;2024-03-23T02:15:53;30.97;;;9.03;;
5539;SDS011;2792;52.452;9.752;2024-03-23T02:18:20;24.07;;;8.37;;
5539;SDS011;2792;52.452;9.752;2024-03-23T02:20:47;23.10;;;9.30;;
5539;SDS011;2792;52.452;9.752;2024-03-23T02:23:15;24.83;;;8.80;;
5539;SDS011;2792;52.452;9.752;2024-03-23T02:25:41;27.90;;;8.60;;
5539;SDS011;2792;52.452;9.752;2024-03-23T02:28:08;21.00;;;8.07;;
5539;SDS011;2792;52.452;9.752;2024-03-23T02:30:33;20.07;;;9.20;;
5539;SDS011;2792;52.452;9.752;2024-03-23T02:33:00;24.17;;;9.60;;
5539;SDS011;2792;52.452;9.752;2024-03-23T02:35:26;27.13;;;8.20;;
5539;SDS011;2792;52.452;9.752;2024-03-23T02:37:52;23.10;;;7.47;;
5539;SDS011;2792;52.452;9.752;2024-03-23T02:40:19;21.50;;;8.77;;
5539;SDS011;2792;52.452;9.752;2024-03-23T02:42:46;28.20;;;9.30;;
5539;SDS011;2792;52.452;9.752;2024-03-23T02:45:12;30.33;;;8.93;;
5539;SDS011;2792;52.452;9.752;2024-03-23T02:47:38;27.13;;;7.80;;
5539;SDS011;2792;52.452;9.752;2024-03-23T02:50:04;23.40;;;6.40;;
5539;SDS011;2792;52.452;9.752;2024-03-23T02:52:31;22.10;;;6.47;;
5539;SDS011;2792;52.452;9.752;2024-03-23T02:54:57;26.63;;;6.67;;
5539;SDS011;2792;52.452;9.752;2024-03-23T02:57:25;21.63;;;6.33;;
5539;SDS011;2792;52.452;9.752;2024-03-23T02:59:51;19.67;;;5.90;;
5539;SDS011;2792;52.452;9.752;2024-03-23T03:02:17;18.80;;;6.50;;
5539;SDS011;2792;52.452;9.752;2024-03-23T03:04:43;15.40;;;6.17;;
5539;SDS011;2792;52.452;9.752;2024-03-23T03:07:09;21.27;;;5.33;;
5539;SDS011;2792;52.452;9.752;2024-03-23T03:09:35;19.63;;;5.90;;
5539;SDS011;2792;52.452;9.752;2024-03-23T03:12:04;12.40;;;5.33;;
5539;SDS011;2792;52.452;9.752;2024-03-23T03:14:31;19.53;;;6.27;;
5539;SDS011;2792;52.452;9.752;2024-03-23T03:16:57;21.23;;;5.60;;
5539;SDS011;2792;52.452;9.752;2024-03-23T03:19:23;17.40;;;5.53;;
5539;SDS011;2792;52.452;9.752;2024-03-23T03:21:49;15.20;;;4.63;;
5539;SDS011;2792;52.452;9.752;2024-03-23T03:24:15;15.40;;;4.87;;
5539;SDS011;2792;52.452;9.752;2024-03-23T03:26:42;15.73;;;4.40;;
5539;SDS011;2792;52.452;9.752;2024-03-23T03:29:07;19.33;;;5.27;;
5539;SDS011;2792;52.452;9.752;2024-03-23T03:31:35;15.63;;;4.90;;
5539;SDS011;2792;52.452;9.752;2024-03-23T03:34:01;18.40;;;5.00;;
5539;SDS011;2792;52.452;9.752;2024-03-23T03:36:28;14.70;;;4.70;;
5539;SDS011;2792;52.452;9.752;2024-03-23T03:38:53;17.20;;;3.80;;
5539;SDS011;2792;52.452;9.752;2024-03-23T03:41:20;11.10;;;3.50;;
5539;SDS011;2792;52.452;9.752;2024-03-23T03:43:45;19.53;;;4.53;;
5539;SDS011;2792;52.452;9.752;2024-03-23T03:46:12;25.93;;;5.30;;
5539;SDS011;2792;52.452;9.752;2024-03-23T03:48:39;16.63;;;4.73;;
5539;SDS011;2792;52.452;9.752;2024-03-23T03:51:05;15.00;;;4.73;;
5539;SDS011;2792;52.452;9.752;2024-03-23T03:53:31;20.07;;;4.60;;
5539;SDS011;2792;52.452;9.752;2024-03-23T03:56:00;24.93;;;6.13;;
5539;SDS011;2792;52.452;9.752;2024-03-23T03:58:25;15.80;;;5.33;;
5539;SDS011;2792;52.452;9.752;2024-03-23T04:00:52;13.47;;;4.27;;
5539;SDS011;2792;52.452;9.752;2024-03-23T04:03:17;18.73;;;5.30;;
5539;SDS011;2792;52.452;9.752;2024-03-23T04:05:50;24.00;;;6.40;;
5539;SDS011;2792;52.452;9.752;2024-03-23T04:08:16;17.30;;;5.23;;
5539;SDS011;2792;52.452;9.752;2024-03-23T04:10:43;19.90;;;5.20;;
5539;SDS011;2792;52.452;9.752;2024-03-23T04:13:08;18.73;;;6.07;;
5539;SDS011;2792;52.452;9.752;2024-03-23T04:15:35;19.10;;;6.27;;
5539;SDS011;2792;52.452;9.752;2024-03-23T04:18:00;15.60;;;5.90;;
5539;SDS011;2792;52.452;9.752;2024-03-23T04:20:27;17.47;;;6.10;;
5539;SDS011;2792;52.452;9.752;2024-03-23T04:22:54;28.63;;;9.17;;
5539;SDS011;2792;52.452;9.752;2024-03-23T04:25:20;17.57;;;6.27;;
5539;SDS011;2792;52.452;9.752;2024-03-23T04:27:46;24.23;;;7.50;;
5539;SDS011;2792;52.452;9.752;2024-03-23T04:30:12;19.47;;;7.20;;
5539;SDS011;2792;52.452;9.752;2024-03-23T04:32:39;20.73;;;7.27;;
5539;SDS011;2792;52.452;9.752;2024-03-23T04:35:07;23.83;;;7.43;;
5539;SDS011;2792;52.452;9.752;2024-03-23T04:37:34;23.73;;;6.93;;
5539;SDS011;2792;52.452;9.752;2024-03-23T04:40:02;24.10;;;8.07;;
5539;SDS011;2792;52.452;9.752;2024-03-23T04:42:29;22.10;;;7.60;;
5539;SDS011;2792;52.452;9.752;2024-03-23T04:44:56;25.27;;;7.10;;
5539;SDS011;2792;52.452;9.752;2024-03-23T04:47:21;18.33;;;6.40;;
5539;SDS011;2792;52.452;9.752;2024-03-23T04:49:48;21.67;;;6.70;;
5539;SDS011;2792;52.452;9.752;2024-03-23T04:52:15;28.00;;;8.07;;
5539;SDS011;2792;52.452;9.752;2024-03-23T04:54:42;18.57;;;7.67;;
5539;SDS011;2792;52.452;9.752;2024-03-23T04:57:09;17.53;;;4.70;;
5539;SDS011;2792;52.452;9.752;2024-03-23T04:59:35;19.27;;;3.87;;
5539;SDS011;2792;52.452;9.752;2024-03-23T05:02:01;13.63;;;3.37;;
5539;SDS011;2792;52.452;9.752;2024-03-23T05:04:27;10.93;;;4.30;;
5539;SDS011;2792;52.452;9.752;2024-03-23T05:06:53;8.83;;;3.90;;
5539;SDS011;2792;52.452;9.752;2024-03-23T05:09:20;16.13;;;4.10;;
5539;SDS011;2792;52.452;9.752;2024-03-23T05:11:46;19.57;;;3.63;;
5539;SDS011;2792;52.452;9.752;2024-03-23T05:14:14;7.10;;;3.00;;
5539;SDS011;2792;52.452;9.752;2024-03-23T05:16:39;5.97;;;2.60;;
5539;SDS011;2792;52.452;9.752;2024-03-23T05:19:06;8.40;;;2.47;;
5539;SDS011;2792;52.452;9.752;2024-03-23T05:21:32;10.30;;;2.20;;
5539;SDS011;2792;52.452;9.752;2024-03-23T05:23:59;4.47;;;1.40;;
5539;SDS011;2792;52.452;9.752;2024-03-23T05:26:24;6.60;;;2.03;;
5539;SDS011;2792;52.452;9.752;2024-03-23T05:28:51;6.47;;;1.73;;
5539;SDS011;2792;52.452;9.752;2024-03-23T05:31:23;6.60;;;1.97;;
5539;SDS011;2792;52.452;9.752;2024-03-23T05:33:50;9.50;;;2.30;;
5539;SDS011;2792;52.452;9.752;2024-03-23T05:36:17;4.93;;;1.60;;
5539;SDS011;2792;52.452;9.752;2024-03-23T05:38:43;6.70;;;2.17;;
5539;SDS011;2792;52.452;9.752;2024-03-23T05:41:09;9.80;;;3.70;;
5539;SDS011;2792;52.452;9.752;2024-03-23T05:43:36;7.93;;;1.90;;
5539;SDS011;2792;52.452;9.752;2024-03-23T05:46:01;7.00;;;1.80;;
5539;SDS011;2792;52.452;9.752;2024-03-23T05:48:31;8.90;;;2.20;;
5539;SDS011;2792;52.452;9.752;2024-03-23T05:50:56;14.67;;;2.20;;
5539;SDS011;2792;52.452;9.752;2024-03-23T05:53:23;4.70;;;1.90;;
5539;SDS011;2792;52.452;9.752;2024-03-23T05:55:49;7.63;;;2.20;;
5539;SDS011;2792;52.452;9.752;2024-03-23T05:58:16;10.23;;;2.60;;
5539;SDS011;2792;52.452;9.752;2024-03-23T06:00:42;4.73;;;1.90;;
5539;SDS011;2792;52.452;9.752;2024-03-23T06:03:09;7.40;;;2.30;;
5539;SDS011;2792;52.452;9.752;2024-03-23T06:05:36;6.90;;;2.67;;
5539;SDS011;2792;52.452;9.752;2024-03-23T06:08:03;10.50;;;2.00;;
5539;SDS011;2792;52.452;9.752;2024-03-23T06:10:29;8.97;;;2.57;;
5539;SDS011;2792;52.452;9.752;2024-03-23T06:12:56;6.40;;;1.80;;
5539;SDS011;2792;52.452;9.752;2024-03-23T06:15:22;11.63;;;2.30;;
5539;SDS011;2792;52.452;9.752;2024-03-23T06:17:48;7.70;;;2.37;;
5539;SDS011;2792;52.452;9.752;2024-03-23T06:20:14;8.13;;;2.17;;
5539;SDS011;2792;52.452;9.752;2024-03-23T06:22:42;9.80;;;2.30;;
5539;SDS011;2792;52.452;9.752;2024-03-23T06:25:08;7.80;;;2.47;;
5539;SDS011;2792;52.452;9.752;2024-03-23T06:27:34;6.37;;;2.20;;
5539;SDS011;2792;52.452;9.752;2024-03-23T06:30:00;15.33;;;2.60;;
5539;SDS011;2792;52.452;9.752;2024-03-23T06:32:27;6.20;;;2.67;;
5539;SDS011;2792;52.452;9.752;2024-03-23T06:34:53;9.80;;;3.17;;
5539;SDS011;2792;52.452;9.752;2024-03-23T06:37:19;21.90;;;4.70;;
5539;SDS011;2792;52.452;9.752;2024-03-23T06:39:46;9.07;;;2.93;;
5539;SDS011;2792;52.452;9.752;2024-03-23T06:42:13;11.53;;;3.40;;
5539;SDS011;2792;52.452;9.752;2024-03-23T06:44:38;19.07;;;3.40;;
5539;SDS011;2792;52.452;9.752;2024-03-23T06:47:05;14.57;;;4.50;;
5539;SDS011;2792;52.452;9.752;2024-03-23T06:49:31;15.80;;;4.53;;
5539;SDS011;2792;52.452;9.752;2024-03-23T06:51:57;17.37;;;5.77;;
5539;SDS011;2792;52.452;9.752;2024-03-23T06:54:24;13.23;;;4.30;;
5539;SDS011;2792;52.452;9.752;2024-03-23T06:56:52;17.43;;;5.60;;
5539;SDS011;2792;52.452;9.752;2024-03-23T06:59:17;13.00;;;5.40;;
5539;SDS011;2792;52.452;9.752;2024-03-23T07:01:44;26.17;;;6.23;;
5539;SDS011;2792;52.452;9.752;2024-03-23T07:04:09;21.47;;;6.40;;
5539;SDS011;2792;52.452;9.752;2024-03-23T07:06:42;23.70;;;6.50;;
5539;SDS011;2792;52.452;9.752;2024-03-23T07:09:08;14.50;;;6.53;;
5539;SDS011;2792;52.452;9.752;2024-03-23T07:11:34;23.90;;;6.93;;
5539;SDS011;2792;52.452;9.752;2024-03-23T07:14:01;22.90;;;6.87;;
5539;SDS011;2792;52.452;9.752;2024-03-23T07:16:28;29.63;;;7.40;;
5539;SDS011;2792;52.452;9.752;2024-03-23T07:18:54;40.90;;;8.63;;
5539;SDS011;2792;52.452;9.752;2024-03-23T07:21:20;29.30;;;7.83;;
5539;SDS011;2792;52.452;9.752;2024-03-23T07:23:46;17.30;;;7.63;;
5539;SDS011;2792;52.452;9.752;2024-03-23T07:26:12;25.83;;;7.33;;
5539;SDS011;2792;52.452;9.752;2024-03-23T07:28:38;21.67;;;8.30;;
5539;SDS011;2792;52.452;9.752;2024-03-23T07:31:10;32.47;;;7.67;;
5539;SDS011;2792;52.452;9.752;2024-03-23T07:33:37;27.70;;;7.50;;
5539;SDS011;2792;52.452;9.752;2024-03-23T07:36:08;34.83;;;8.50;;
5539;SDS011;2792;52.452;9.752;2024-03-23T07:38:34;37.10;;;9.20;;
5539;SDS011;2792;52.452;9.752;2024-03-23T07:41:04;22.60;;;7.50;;
5539;SDS011;2792;52.452;9.752;2024-03-23T07:43:30;30.67;;;7.03;;
5539;SDS011;2792;52.452;9.752;2024-03-23T07:45:57;21.37;;;7.37;;
5539;SDS011;2792;52.452;9.752;2024-03-23T07:48:24;27.20;;;7.53;;
5539;SDS011;2792;52.452;9.752;2024-03-23T07:50:59;28.93;;;8.40;;
5539;SDS011;2792;52.452;9.752;2024-03-23T07:53:26;29.10;;;8.13;;
5539;SDS011;2792;52.452;9.752;2024-03-23T07:55:54;28.27;;;9.17;;
5539;SDS011;2792;52.452;9.752;2024-03-23T07:58:20;30.97;;;7.90;;
5539;SDS011;2792;52.452;9.752;2024-03-23T08:00:46;25.63;;;7.83;;
5539;SDS011;2792;52.452;9.752;2024-03-23T08:03:12;27.40;;;8.60;;
5539;SDS011;2792;52.452;9.752;2024-03-23T08:05:40;30.47;;;9.00;;
5539;SDS011;2792;52.452;9.752;2024-03-23T08:08:06;32.43;;;8.33;;
5539;SDS011;2792;52.452;9.752;2024-03-23T08:10:32;30.30;;;8.30;;
5539;SDS011;2792;52.452;9.752;2024-03-23T08:12:58;28.23;;;8.50;;
5539;SDS011;2792;52.452;9.752;2024-03-23T08:15:24;18.70;;;8.50;;
5539;SDS011;2792;52.452;9.752;2024-03-23T08:17:50;26.50;;;10.20;;
5539;SDS011;2792;52.452;9.752;2024-03-23T08:20:16;30.23;;;7.80;;
5539;SDS011;2792;52.452;9.752;2024-03-23T08:22:43;30.47;;;8.70;;
5539;SDS011;2792;52.452;9.752;2024-03-23T08:25:10;24.50;;;8.10;;
5539;SDS011;2792;52.452;9.752;2024-03-23T08:27:35;25.70;;;8.60;;
5539;SDS011;2792;52.452;9.752;2024-03-23T08:30:02;29.43;;;9.10;;
5539;SDS011;2792;52.452;9.752;2024-03-23T08:32:28;25.53;;;8.43;;
5539;SDS011;2792;52.452;9.752;2024-03-23T08:34:54;29.70;;;8.80;;
5539;SDS011;2792;52.452;9.752;2024-03-23T08:37:20;25.93;;;9.77;;
5539;SDS011;2792;52.452;9.752;2024-03-23T08:39:51;24.50;;;8.73;;
5539;SDS011;2792;52.452;9.752;2024-03-23T08:42:18;19.73;;;9.00;;
5539;SDS011;2792;52.452;9.752;2024-03-23T08:44:44;23.07;;;7.77;;
5539;SDS011;2792;52.452;9.752;2024-03-23T08:47:14;28.90;;;7.93;;
5539;SDS011;2792;52.452;9.752;2024-03-23T08:49:41;31.07;;;7.33;;
5539;SDS011;2792;52.452;9.752;2024-03-23T08:52:06;25.30;;;6.80;;
5539;SDS011;2792;52.452;9.752;2024-03-23T08:54:33;19.50;;;6.60;;
5539;SDS011;2792;52.452;9.752;2024-03-23T08:57:00;22.00;;;6.60;;
5539;SDS011;2792;52.452;9.752;2024-03-23T08:59:27;19.43;;;6.43;;
5539;SDS011;2792;52.452;9.752;2024-03-23T09:01:54;20.43;;;6.10;;
5539;SDS011;2792;52.452;9.752;2024-03-23T09:04:20;18.80;;;7.10;;
5539;SDS011;2792;52.452;9.752;2024-03-23T09:06:46;13.53;;;5.87;;
5539;SDS011;2792;52.452;9.752;2024-03-23T09:09:13;12.40;;;5.40;;
5539;SDS011;2792;52.452;9.752;2024-03-23T09:11:38;20.00;;;8.13;;
5539;SDS011;2792;52.452;9.752;2024-03-23T09:14:06;18.43;;;6.30;;
5539;SDS011;2792;52.452;9.752;2024-03-23T09:16:32;14.90;;;7.13;;
5539;SDS011;2792;52.452;9.752;2024-03-23T09:18:58;17.87;;;6.40;;
5539;SDS011;2792;52.452;9.752;2024-03-23T09:21:24;17.60;;;6.63;;
5539;SDS011;2792;52.452;9.752;2024-03-23T09:23:50;17.50;;;6.53;;
5539;SDS011;2792;52.452;9.752;2024-03-23T09:26:16;16.70;;;6.93;;
5539;SDS011;2792;52.452;9.752;2024-03-23T09:28:42;19.13;;;7.30;;
5539;SDS011;2792;52.452;9.752;2024-03-23T09:31:09;24.23;;;7.87;;
5539;SDS011;2792;52.452;9.752;2024-03-23T09:33:39;17.27;;;6.80;;
5539;SDS011;2792;52.452;9.752;2024-03-23T09:36:05;17.03;;;5.63;;
5539;SDS011;2792;52.452;9.752;2024-03-23T09:38:32;15.10;;;5.37;;
5539;SDS011;2792;52.452;9.752;2024-03-23T09:40:58;13.93;;;4.80;;
5539;SDS011;2792;52.452;9.752;2024-03-23T09:43:25;15.27;;;4.40;;
5539;SDS011;2792;52.452;9.752;2024-03-23T09:45:50;17.73;;;4.40;;
5539;SDS011;2792;52.452;9.752;2024-03-23T09:48:21;10.93;;;3.77;;
5539;SDS011;2792;52.452;9.752;2024-03-23T09:50:47;8.70;;;4.80;;
5539;SDS011;2792;52.452;9.752;2024-03-23T09:53:14;13.67;;;5.50;;
5539;SDS011;2792;52.452;9.752;2024-03-23T09:55:40;15.67;;;4.53;;
5539;SDS011;2792;52.452;9.752;2024-03-23T09:58:07;12.20;;;4.73;;
5539;SDS011;2792;52.452;9.752;2024-03-23T10:00:33;11.70;;;4.90;;
5539;SDS011;2792;52.452;9.752;2024-03-23T10:03:00;13.83;;;4.70;;
5539;SDS011;2792;52.452;9.752;2024-03-23T10:05:28;10.03;;;3.10;;
5539;SDS011;2792;52.452;9.752;2024-03-23T10:07:56;7.73;;;2.77;;
5539;SDS011;2792;52.452;9.752;2024-03-23T10:10:22;9.83;;;3.03;;
5539;SDS011;2792;52.452;9.752;2024-03-23T10:12:51;14.40;;;3.40;;
5539;SDS011;2792;52.452;9.752;2024-03-23T10:15:18;7.77;;;2.97;;
5539;SDS011;2792;52.452;9.752;2024-03-23T10:17:45;13.83;;;3.70;;
5539;SDS011;2792;52.452;9.752;2024-03-23T10:20:11;14.43;;;2.53;;
5539;SDS011;2792;52.452;9.752;2024-03-23T10:22:39;13.80;;;4.60;;
5539;SDS011;2792;52.452;9.752;2024-03-23T10:25:08;5.80;;;2.57;;
5539;SDS011;2792;52.452;9.752;2024-03-23T10:27:35;14.90;;;3.33;;
5539;SDS011;2792;52.452;9.752;2024-03-23T10:30:07;7.90;;;2.40;;
5539;SDS011;2792;52.452;9.752;2024-03-23T10:32:34;7.03;;;2.43;;
5539;SDS011;2792;52.452;9.752;2024-03-23T10:35:13;10.03;;;3.03;;
5539;SDS011;2792;52.452;9.752;2024-03-23T10:37:42;6.33;;;3.00;;
5539;SDS011;2792;52.452;9.752;2024-03-23T10:40:09;4.80;;;2.17;;
5539;SDS011;2792;52.452;9.752;2024-03-23T10:42:37;6.40;;;2.20;;
5539;SDS011;2792;52.452;9.752;2024-03-23T10:45:03;9.30;;;2.67;;
5539;SDS011;2792;52.452;9.752;2024-03-23T10:47:31;5.73;;;1.80;;
5539;SDS011;2792;52.452;9.752;2024-03-23T10:49:57;3.60;;;1.40;;
5539;SDS011;2792;52.452;9.752;2024-03-23T10:52:23;4.47;;;2.30;;
5539;SDS011;2792;52.452;9.752;2024-03-23T10:54:51;11.43;;;2.43;;
5539;SDS011;2792;52.452;9.752;2024-03-23T10:57:19;5.10;;;2.40;;
5539;SDS011;2792;52.452;9.752;2024-03-23T10:59:46;8.83;;;3.90;;
5539;SDS011;2792;52.452;9.752;2024-03-23T11:02:18;4.80;;;3.17;;
5539;SDS011;2792;52.452;9.752;2024-03-23T11:04:44;5.90;;;3.30;;
5539;SDS011;2792;52.452;9.752;2024-03-23T11:09:55;9.40;;;3.17;;
5539;SDS011;2792;52.452;9.752;2024-03-23T11:12:31;6.93;;;3.00;;
5539;SDS011;2792;52.452;9.752;2024-03-23T11:14:57;10.40;;;2.80;;
5539;SDS011;2792;52.452;9.752;2024-03-23T11:17:27;4.93;;;2.20;;
5539;SDS011;2792;52.452;9.752;2024-03-23T11:19:52;10.23;;;3.53;;
5539;SDS011;2792;52.452;9.752;2024-03-23T11:25:08;7.43;;;2.17;;
5539;SDS011;2792;52.452;9.752;2024-03-23T11:27:41;4.40;;;1.97;;
5539;SDS011;2792;52.452;9.752;2024-03-23T11:30:14;4.27;;;2.17;;
5539;SDS011;2792;52.452;9.752;2024-03-23T11:32:42;2.90;;;2.23;;
5539;SDS011;2792;52.452;9.752;2024-03-23T11:35:08;3.93;;;2.63;;
5539;SDS011;2792;52.452;9.752;2024-03-23T11:37:36;5.73;;;2.40;;
5539;SDS011;2792;52.452;9.752;2024-03-23T11:42:46;3.33;;;2.30;;
5539;SDS011;2792;52.452;9.752;2024-03-23T11:45:11;3.60;;;2.30;;
5539;SDS011;2792;52.452;9.752;2024-03-23T11:47:39;2.17;;;1.40;;
5539;SDS011;2792;52.452;9.752;2024-03-23T11:50:04;3.60;;;1.60;;
5539;SDS011;2792;52.452;9.752;2024-03-23T11:52:31;5.30;;;2.07;;
5539;SDS011;2792;52.452;9.752;2024-03-23T11:55:02;5.93;;;2.00;;
5539;SDS011;2792;52.452;9.752;2024-03-23T11:57:31;1.73;;;1.53;;
5539;SDS011;2792;52.452;9.752;2024-03-23T11:59:56;7.30;;;1.90;;
5539;SDS011;2792;52.452;9.752;2024-03-23T12:02:23;2.20;;;2.00;;
5539;SDS011;2792;52.452;9.752;2024-03-23T12:04:49;1.47;;;1.37;;
5539;SDS011;2792;52.452;9.752;2024-03-23T12:07:16;4.60;;;2.30;;
5539;SDS011;2792;52.452;9.752;2024-03-23T12:09:43;3.10;;;1.80;;
5539;SDS011;2792;52.452;9.752;2024-03-23T12:12:13;1.67;;;1.57;;
5539;SDS011;2792;52.452;9.752;2024-03-23T12:14:41;5.90;;;1.77;;
5539;SDS011;2792;52.452;9.752;2024-03-23T12:17:09;6.33;;;1.83;;
5539;SDS011;2792;52.452;9.752;2024-03-23T12:19:38;1.10;;;1.00;;
5539;SDS011;2792;52.452;9.752;2024-03-23T12:22:06;5.47;;;1.90;;
5539;SDS011;2792;52.452;9.752;2024-03-23T12:24:32;2.33;;;1.60;;
5539;SDS011;2792;52.452;9.752;2024-03-23T12:27:00;4.07;;;1.40;;
5539;SDS011;2792;52.452;9.752;2024-03-23T12:29:27;3.00;;;1.67;;
5539;SDS011;2792;52.452;9.752;2024-03-23T12:31:56;8.60;;;1.77;;
5539;SDS011;2792;52.452;9.752;2024-03-23T12:34:21;7.50;;;2.40;;
5539;SDS011;2792;52.452;9.752;2024-03-23T12:36:48;6.97;;;3.30;;
5539;SDS011;2792;52.452;9.752;2024-03-23T12:39:13;4.30;;;2.40;;
5539;SDS011;2792;52.452;9.752;2024-03-23T12:41:40;5.13;;;2.17;;
5539;SDS011;2792;52.452;9.752;2024-03-23T12:44:05;5.77;;;2.80;;
5539;SDS011;2792;52.452;9.752;2024-03-23T12:46:33;3.70;;;2.03;;
5539;SDS011;2792;52.452;9.752;2024-03-23T12:49:00;3.37;;;2.43;;
5539;SDS011;2792;52.452;9.752;2024-03-23T12:51:26;4.00;;;2.53;;
5539;SDS011;2792;52.452;9.752;2024-03-23T12:53:52;3.80;;;2.40;;
5539;SDS011;2792;52.452;9.752;2024-03-23T12:56:18;4.63;;;2.17;;
5539;SDS011;2792;52.452;9.752;2024-03-23T12:58:44;3.10;;;1.83;;
5539;SDS011;2792;52.452;9.752;2024-03-23T13:01:13;2.10;;;1.60;;
5539;SDS011;2792;52.452;9.752;2024-03-23T13:03:39;3.13;;;1.57;;
5539;SDS011;2792;52.452;9.752;2024-03-23T13:06:07;3.13;;;1.60;;
5539;SDS011;2792;52.452;9.752;2024-03-23T13:08:33;2.93;;;1.40;;
5539;SDS011;2792;52.452;9.752;2024-03-23T13:11:00;4.10;;;1.70;;
5539;SDS011;2792;52.452;9.752;2024-03-23T13:13:25;11.90;;;2.30;;
5539;SDS011;2792;52.452;9.752;2024-03-23T13:15:52;6.57;;;2.23;;
5539;SDS011;2792;52.452;9.752;2024-03-23T13:18:17;4.57;;;1.57;;
5539;SDS011;2792;52.452;9.752;2024-03-23T13:20:44;4.83;;;1.80;;
5539;SDS011;2792;52.452;9.752;2024-03-23T13:23:11;3.50;;;2.07;;
5539;SDS011;2792;52.452;9.752;2024-03-23T13:25:38;4.07;;;1.80;;
5539;SDS011;2792;52.452;9.752;2024-03-23T13:28:03;10.00;;;2.10;;
5539;SDS011;2792;52.452;9.752;2024-03-23T13:30:30;2.30;;;1.67;;
5539;SDS011;2792;52.452;9.752;2024-03-23T13:32:56;3.17;;;1.80;;
5539;SDS011;2792;52.452;9.752;2024-03-23T13:35:23;3.43;;;1.53;;
5539;SDS011;2792;52.452;9.752;2024-03-23T13:37:48;2.27;;;1.77;;
5539;SDS011;2792;52.452;9.752;2024-03-23T13:40:16;4.20;;;1.63;;
5539;SDS011;2792;52.452;9.752;2024-03-23T13:42:42;2.60;;;1.53;;
5539;SDS011;2792;52.452;9.752;2024-03-23T13:45:08;4.87;;;2.97;;
5539;SDS011;2792;52.452;9.752;2024-03-23T13:47:36;5.90;;;1.97;;
5539;SDS011;2792;52.452;9.752;2024-03-23T13:50:04;2.93;;;1.70;;
5539;SDS011;2792;52.452;9.752;2024-03-23T13:52:30;6.13;;;2.00;;
5539;SDS011;2792;52.452;9.752;2024-03-23T13:54:56;2.20;;;1.60;;
5539;SDS011;2792;52.452;9.752;2024-03-23T13:57:23;3.63;;;2.00;;
5539;SDS011;2792;52.452;9.752;2024-03-23T13:59:51;7.07;;;1.90;;
5539;SDS011;2792;52.452;9.752;2024-03-23T14:02:16;3.03;;;1.60;;
5539;SDS011;2792;52.452;9.752;2024-03-23T14:04:43;3.73;;;1.70;;
5539;SDS011;2792;52.452;9.752;2024-03-23T14:07:08;2.20;;;2.00;;
5539;SDS011;2792;52.452;9.752;2024-03-23T14:09:35;5.80;;;1.70;;
5539;SDS011;2792;52.452;9.752;2024-03-23T14:12:01;3.90;;;1.73;;
5539;SDS011;2792;52.452;9.752;2024-03-23T14:14:29;7.60;;;1.53;;
5539;SDS011;2792;52.452;9.752;2024-03-23T14:16:54;4.77;;;2.03;;
5539;SDS011;2792;52.452;9.752;2024-03-23T14:19:21;5.47;;;2.20;;
5539;SDS011;2792;52.452;9.752;2024-03-23T14:21:46;2.30;;;2.00;;
5539;SDS011;2792;52.452;9.752;2024-03-23T14:24:13;5.83;;;1.67;;
5539;SDS011;2792;52.452;9.752;2024-03-23T14:26:38;3.70;;;1.63;;
5539;SDS011;2792;52.452;9.752;2024-03-23T14:29:06;2.50;;;1.80;;
5539;SDS011;2792;52.452;9.752;2024-03-23T14:31:34;4.10;;;1.47;;
5539;SDS011;2792;52.452;9.752;2024-03-23T14:34:00;5.80;;;1.50;;
5539;SDS011;2792;52.452;9.752;2024-03-23T14:36:26;1.43;;;1.03;;
5539;SDS011;2792;52.452;9.752;2024-03-23T14:38:52;3.00;;;1.00;;
5539;SDS011;2792;52.452;9.752;2024-03-23T14:41:18;3.70;;;1.27;;
5539;SDS011;2792;52.452;9.752;2024-03-23T14:43:44;2.57;;;1.47;;
5539;SDS011;2792;52.452;9.752;2024-03-23T14:46:11;1.90;;;0.93;;
5539;SDS011;2792;52.452;9.752;2024-03-23T14:48:41;1.70;;;0.80;;
5539;SDS011;2792;52.452;9.752;2024-03-23T14:51:07;0.70;;;0.70;;
5539;SDS011;2792;52.452;9.752;2024-03-23T14:53:34;0.60;;;0.60;;
5539;SDS011;2792;52.452;9.752;2024-03-23T14:56:00;3.83;;;0.70;;
5539;SDS011;2792;52.452;9.752;2024-03-23T14:58:27;1.27;;;0.70;;
5539;SDS011;2792;52.452;9.752;2024-03-23T15:00:59;0.63;;;0.63;;
5539;SDS011;2792;52.452;9.752;2024-03-23T15:03:25;1.27;;;0.80;;
5539;SDS011;2792;52.452;9.752;2024-03-23T15:05:54;0.60;;;0.60;;
5539;SDS011;2792;52.452;9.752;2024-03-23T15:08:20;1.87;;;0.97;;
5539;SDS011;2792;52.452;9.752;2024-03-23T15:10:46;0.60;;;0.60;;
5539;SDS011;2792;52.452;9.752;2024-03-23T15:13:12;3.53;;;0.90;;
5539;SDS011;2792;52.452;9.752;2024-03-23T15:15:39;1.57;;;0.70;;
5539;SDS011;2792;52.452;9.752;2024-03-23T15:18:06;0.70;;;0.70;;
5539;SDS011;2792;52.452;9.752;2024-03-23T15:20:32;1.43;;;1.00;;
5539;SDS011;2792;52.452;9.752;2024-03-23T15:23:02;2.70;;;1.00;;
5539;SDS011;2792;52.452;9.752;2024-03-23T15:25:28;2.53;;;1.00;;
5539;SDS011;2792;52.452;9.752;2024-03-23T15:27:54;4.90;;;0.87;;
5539;SDS011;2792;52.452;9.752;2024-03-23T15:30:20;2.10;;;0.97;;
5539;SDS011;2792;52.452;9.752;2024-03-23T15:32:46;2.20;;;1.00;;
5539;SDS011;2792;52.452;9.752;2024-03-23T15:35:13;5.13;;;0.93;;
5539;SDS011;2792;52.452;9.752;2024-03-23T15:37:39;1.20;;;0.87;;
5539;SDS011;2792;52.452;9.752;2024-03-23T15:40:07;2.63;;;1.17;;
5539;SDS011;2792;52.452;9.752;2024-03-23T15:42:35;5.13;;;1.57;;
5539;SDS011;2792;52.452;9.752;2024-03-23T15:45:01;2.83;;;1.60;;
5539;SDS011;2792;52.452;9.752;2024-03-23T15:47:28;2.10;;;1.37;;
5539;SDS011;2792;52.452;9.752;2024-03-23T15:49:55;1.90;;;0.97;;
5539;SDS011;2792;52.452;9.752;2024-03-23T15:52:21;5.13;;;1.27;;
5539;SDS011;2792;52.452;9.752;2024-03-23T15:54:48;2.57;;;1.10;;
5539;SDS011;2792;52.452;9.752;2024-03-23T15:57:14;1.87;;;1.37;;
5539;SDS011;2792;52.452;9.752;2024-03-23T15:59:41;2.10;;;1.30;;
5539;SDS011;2792;52.452;9.752;2024-03-23T16:02:07;3.17;;;1.33;;
5539;SDS011;2792;52.452;9.752;2024-03-23T16:04:33;1.33;;;0.97;;
5539;SDS011;2792;52.452;9.752;2024-03-23T16:06:59;1.87;;;1.10;;